createdAt,value
2022-10-13T00:00:26.966Z,12.27
2022-10-13T00:05:18.830Z,12.27
2022-10-13T00:10:10.819Z,12.27
2022-10-13T00:15:03.945Z,12.27
2022-10-13T00:19:55.712Z,12.22
2022-10-13T00:24:51.713Z,12.22
2022-10-13T00:29:43.380Z,12.20
2022-10-13T00:34:37.074Z,12.17
2022-10-13T00:39:28.651Z,12.14
2022-10-13T00:44:57.991Z,12.15
2022-10-13T00:49:51.054Z,12.11
2022-10-13T00:54:42.922Z,12.08
2022-10-13T00:59:35.085Z,12.07
2022-10-13T01:04:32.046Z,12.05
2022-10-13T01:09:23.863Z,12.00
2022-10-13T01:15:09.758Z,12.00
2022-10-13T01:20:29.454Z,12.00
2022-10-13T01:25:58.112Z,11.97
2022-10-13T01:30:58.953Z,11.93
2022-10-13T01:35:59.619Z,11.91
2022-10-13T01:41:28.977Z,11.91
2022-10-13T01:46:27.321Z,11.89
2022-10-13T01:51:22.029Z,11.89
2022-10-13T01:56:13.801Z,11.89
2022-10-13T02:01:20.657Z,11.86
2022-10-13T02:06:24.119Z,11.80
2022-10-13T02:11:18.420Z,11.70
2022-10-13T02:16:11.234Z,11.71
2022-10-13T02:21:04.142Z,11.72
2022-10-13T02:25:57.509Z,11.74
2022-10-13T02:30:49.183Z,11.75
2022-10-13T02:35:41.723Z,11.77
2022-10-13T02:40:33.654Z,11.78
2022-10-13T02:45:25.380Z,11.77
2022-10-13T02:50:17.176Z,11.70
2022-10-13T02:55:09.033Z,11.68
2022-10-13T03:00:00.774Z,11.68
2022-10-13T03:04:52.419Z,11.68
2022-10-13T03:09:44.085Z,11.68
2022-10-13T03:14:35.903Z,11.65
2022-10-13T03:19:27.865Z,11.65
2022-10-13T03:24:19.988Z,11.64
2022-10-13T03:29:15.976Z,11.66
2022-10-13T03:34:08.949Z,11.67
2022-10-13T03:39:00.582Z,11.67
2022-10-13T03:43:52.210Z,11.58
2022-10-13T03:48:44.090Z,11.50
2022-10-13T03:53:36.186Z,11.46
2022-10-13T03:58:31.136Z,11.45
2022-10-13T04:03:23.287Z,11.41
2022-10-13T04:08:15.093Z,11.36
2022-10-13T04:13:07.005Z,11.34
2022-10-13T04:17:58.620Z,11.32
2022-10-13T04:22:50.236Z,11.28
2022-10-13T04:27:42.072Z,11.24
2022-10-13T04:32:33.834Z,11.16
2022-10-13T04:37:25.638Z,11.06
2022-10-13T04:42:17.588Z,10.99
2022-10-13T04:47:09.405Z,10.96
2022-10-13T04:52:00.980Z,10.93
2022-10-13T04:56:52.657Z,10.90
2022-10-13T05:01:44.281Z,10.86
2022-10-13T05:06:53.368Z,10.80
2022-10-13T05:11:50.522Z,10.78
2022-10-13T05:16:42.197Z,10.73
2022-10-13T05:21:34.145Z,10.69
2022-10-13T05:26:29.037Z,10.68
2022-10-13T05:31:23.402Z,10.66
2022-10-13T05:36:21.314Z,10.64
2022-10-13T05:41:14.003Z,10.65
2022-10-13T05:46:06.558Z,10.66
2022-10-13T05:51:00.915Z,10.70
2022-10-13T05:55:54.787Z,10.72
2022-10-13T06:00:47.129Z,10.70
2022-10-13T06:05:40.728Z,10.67
2022-10-13T06:10:32.571Z,10.60
2022-10-13T06:15:27.999Z,10.54
2022-10-13T06:20:20.624Z,10.42
2022-10-13T06:25:12.422Z,10.35
2022-10-13T06:30:04.514Z,10.30
2022-10-13T06:34:56.169Z,10.24
2022-10-13T06:39:47.753Z,10.18
2022-10-13T06:44:39.385Z,10.09
2022-10-13T06:49:30.990Z,9.96
2022-10-13T06:54:22.736Z,9.87
2022-10-13T06:59:14.554Z,9.77
2022-10-13T07:04:06.620Z,9.70
2022-10-13T07:08:58.248Z,9.63
2022-10-13T07:13:49.924Z,9.64
2022-10-13T07:18:41.549Z,9.67
2022-10-13T07:23:33.321Z,9.70
2022-10-13T07:28:26.106Z,9.72
2022-10-13T07:33:18.069Z,9.77
2022-10-13T07:38:09.858Z,9.84
2022-10-13T07:43:02.866Z,10.10
2022-10-13T07:47:54.521Z,10.80
2022-10-13T07:52:46.166Z,11.63
2022-10-13T07:57:38.195Z,12.40
2022-10-13T08:02:30.518Z,13.03
2022-10-13T08:07:22.795Z,13.57
2022-10-13T08:12:14.636Z,14.10
2022-10-13T08:17:06.350Z,14.57
2022-10-13T08:21:59.576Z,15.10
2022-10-13T08:26:52.553Z,15.56
2022-10-13T08:31:45.426Z,15.91
2022-10-13T08:36:37.735Z,16.22
2022-10-13T08:41:37.561Z,16.51
2022-10-13T08:46:38.720Z,16.90
2022-10-13T08:51:30.574Z,17.23
2022-10-13T08:56:25.918Z,17.47
2022-10-13T09:01:30.175Z,17.24
2022-10-13T09:06:28.664Z,16.87
2022-10-13T09:11:20.876Z,16.47
2022-10-13T09:16:12.579Z,16.51
2022-10-13T09:21:25.780Z,16.41
2022-10-13T09:26:24.616Z,17.06
2022-10-13T09:31:25.223Z,17.76
2022-10-13T09:36:16.909Z,18.21
2022-10-13T09:41:16.576Z,18.35
2022-10-13T09:46:31.120Z,18.73
2022-10-13T09:51:37.569Z,18.89
2022-10-13T09:56:46.401Z,19.02
2022-10-13T10:01:42.045Z,19.30
2022-10-13T10:06:35.423Z,19.40
2022-10-13T10:11:46.226Z,19.61
2022-10-13T10:16:46.692Z,20.06
2022-10-13T10:21:43.344Z,20.29
2022-10-13T10:26:59.708Z,20.46
2022-10-13T10:32:04.891Z,20.52
2022-10-13T10:37:08.811Z,20.40
2022-10-13T10:42:24.961Z,20.22
2022-10-13T10:47:24.915Z,19.85
2022-10-13T10:52:27.182Z,19.77
2022-10-13T10:57:33.844Z,19.96
2022-10-13T11:02:42.943Z,19.80
2022-10-13T11:07:34.593Z,20.07
2022-10-13T11:12:46.927Z,20.03
2022-10-13T11:17:42.426Z,19.79
2022-10-13T11:22:34.088Z,19.56
2022-10-13T11:27:40.824Z,19.30
2022-10-13T11:32:35.530Z,18.94
2022-10-13T11:38:06.734Z,18.72
2022-10-13T11:43:37.003Z,19.05
2022-10-13T11:48:50.581Z,19.54
2022-10-13T11:54:00.937Z,19.93
2022-10-13T11:58:52.773Z,20.25
2022-10-13T12:03:46.596Z,20.07
2022-10-13T12:08:39.501Z,19.79
2022-10-13T12:13:33.670Z,19.94
2022-10-13T12:18:47.509Z,19.87
2022-10-13T12:23:39.812Z,19.47
2022-10-13T12:29:01.036Z,19.19
2022-10-13T12:34:02.004Z,19.45
2022-10-13T12:38:58.168Z,19.66
2022-10-13T12:43:51.808Z,19.70
2022-10-13T12:48:44.844Z,19.72
2022-10-13T12:53:38.344Z,19.64
2022-10-13T12:58:32.673Z,19.49
2022-10-13T13:03:27.639Z,19.32
2022-10-13T13:08:31.829Z,19.01
2022-10-13T13:13:24.889Z,18.85
2022-10-13T13:18:39.777Z,18.77
2022-10-13T13:23:34.699Z,18.77
2022-10-13T13:28:31.633Z,18.62
2022-10-13T13:33:23.264Z,18.31
2022-10-13T13:38:14.945Z,18.00
2022-10-13T13:43:06.643Z,17.92
2022-10-13T13:48:00.918Z,17.98
2022-10-13T13:52:52.692Z,17.72
2022-10-13T13:57:45.384Z,17.54
2022-10-13T14:02:37.088Z,17.63
2022-10-13T14:07:28.801Z,17.70
2022-10-13T14:12:20.750Z,17.74
2022-10-13T14:17:12.691Z,17.66
2022-10-13T14:22:09.280Z,17.49
2022-10-13T14:27:01.368Z,17.37
2022-10-13T14:31:53.174Z,17.38
2022-10-13T14:36:45.254Z,17.18
2022-10-13T14:41:37.347Z,17.15
2022-10-13T14:46:29.041Z,17.05
2022-10-13T14:51:20.656Z,16.93
2022-10-13T14:56:19.709Z,16.96
2022-10-13T15:01:11.459Z,17.02
2022-10-13T15:06:03.354Z,16.88
2022-10-13T15:11:03.026Z,16.79
2022-10-13T15:15:57.058Z,16.72
2022-10-13T15:20:50.429Z,16.75
2022-10-13T15:25:52.177Z,16.79
2022-10-13T15:30:43.886Z,16.73
2022-10-13T15:35:35.582Z,16.61
2022-10-13T15:40:27.331Z,16.56
2022-10-13T15:45:19.295Z,16.40
2022-10-13T15:50:11.019Z,16.25
2022-10-13T15:55:02.903Z,16.18
2022-10-13T15:59:54.511Z,16.16
2022-10-13T16:04:46.409Z,16.07
2022-10-13T16:09:38.051Z,15.94
2022-10-13T16:14:30.417Z,15.83
2022-10-13T16:19:22.211Z,15.71
2022-10-13T16:24:13.934Z,15.59
2022-10-13T16:29:05.800Z,15.48
2022-10-13T16:33:57.530Z,15.42
2022-10-13T16:38:49.332Z,15.39
2022-10-13T16:43:42.234Z,15.32
2022-10-13T16:48:34.347Z,15.24
2022-10-13T16:53:26.542Z,15.14
2022-10-13T16:58:18.313Z,14.98
2022-10-13T17:03:11.041Z,14.87
2022-10-13T17:08:02.767Z,14.79
2022-10-13T17:12:54.671Z,14.63
2022-10-13T17:17:46.465Z,14.48
2022-10-13T17:22:39.111Z,14.33
2022-10-13T17:27:30.820Z,14.23
2022-10-13T17:32:22.677Z,14.11
2022-10-13T17:37:14.447Z,14.03
2022-10-13T17:42:06.479Z,13.96
2022-10-13T17:46:58.509Z,13.89
2022-10-13T17:51:52.446Z,13.78
2022-10-13T17:56:45.294Z,13.68
2022-10-13T18:01:38.323Z,13.60
2022-10-13T18:06:37.947Z,13.54
2022-10-13T18:11:30.575Z,13.48
2022-10-13T18:16:24.004Z,13.43
2022-10-13T18:21:17.639Z,13.40
2022-10-13T18:26:17.705Z,13.29
2022-10-13T18:31:30.349Z,13.21
2022-10-13T18:36:27.038Z,13.18
2022-10-13T18:41:20.661Z,13.18
2022-10-13T18:46:12.502Z,13.08
2022-10-13T18:51:06.376Z,12.97
2022-10-13T18:56:04.142Z,12.82
2022-10-13T19:01:04.152Z,12.80
2022-10-13T19:05:56.636Z,12.77
2022-10-13T19:10:48.374Z,12.74
2022-10-13T19:15:40.479Z,12.69
2022-10-13T19:20:32.929Z,12.64
2022-10-13T19:25:25.934Z,12.58
2022-10-13T19:30:18.454Z,12.51
2022-10-13T19:35:10.163Z,12.46
2022-10-13T19:40:02.734Z,12.42
2022-10-13T19:44:54.669Z,12.35
2022-10-13T19:49:47.271Z,12.32
2022-10-13T19:54:39.271Z,12.32
2022-10-13T19:59:30.970Z,12.30
2022-10-13T20:04:22.868Z,12.29
2022-10-13T20:09:15.096Z,12.28
2022-10-13T20:14:07.230Z,12.28
2022-10-13T20:19:00.554Z,12.34
2022-10-13T20:23:52.763Z,12.39
2022-10-13T20:28:46.760Z,12.44
2022-10-13T20:33:39.146Z,12.46
2022-10-13T20:38:32.273Z,12.47
2022-10-13T20:43:25.847Z,12.50
2022-10-13T20:48:17.731Z,12.53
2022-10-13T20:53:09.387Z,12.54
2022-10-13T20:58:01.120Z,12.59
2022-10-13T21:02:52.816Z,12.59
2022-10-13T21:07:44.365Z,12.64
2022-10-13T21:12:35.999Z,12.61
2022-10-13T21:17:29.801Z,12.59
2022-10-13T21:22:21.490Z,12.59
2022-10-13T21:27:13.351Z,12.59
2022-10-13T21:32:05.354Z,12.60
2022-10-13T21:36:57.625Z,12.54
2022-10-13T21:41:49.558Z,12.48
2022-10-13T21:46:41.165Z,12.47
2022-10-13T21:51:38.822Z,12.46
2022-10-13T21:56:31.796Z,12.42
2022-10-13T22:01:27.252Z,12.41
2022-10-13T22:06:19.756Z,12.38
2022-10-13T22:11:13.621Z,12.35
2022-10-13T22:16:06.816Z,12.31
2022-10-13T22:21:07.126Z,12.25
2022-10-13T22:25:58.795Z,12.17
2022-10-13T22:30:52.047Z,12.16
2022-10-13T22:35:43.725Z,12.10
2022-10-13T22:40:35.533Z,12.08
2022-10-13T22:45:27.347Z,12.04
2022-10-13T22:50:19.510Z,11.95
2022-10-13T22:55:12.055Z,11.90
2022-10-13T23:00:04.989Z,11.89
2022-10-13T23:04:56.643Z,11.88
2022-10-13T23:09:48.568Z,11.92
2022-10-13T23:14:40.178Z,11.94
2022-10-13T23:19:31.885Z,11.95
2022-10-13T23:24:23.514Z,11.95
2022-10-13T23:29:15.318Z,11.97
2022-10-13T23:34:06.902Z,11.97
2022-10-13T23:39:00.962Z,12.02
2022-10-13T23:43:52.757Z,12.00
2022-10-13T23:48:45.964Z,12.07
2022-10-13T23:53:39.306Z,12.09
2022-10-13T23:58:32.024Z,12.11
